0ksnesvaering — LMCE — position and weather

sailwx.info

Track history (hours):
 
Tides and Currents Weather Stations Pressure Air Temp Water Temp Dewpoint Dewpoint Depression Visibility Wind Speed Wind Dir Waves Ship Positions

0ksnesvaering

Last reported at 2017-Nov-19 01:16 UTC. Time now 2017-Nov-19 12:33 UTC.
Position N 63°15' E 008°04'.

Length 28 m; draft 5.3 m.

Type: Fishing. MMSI: 257580600.

Date/timePositionNaut miles runAvg speedWind from/ knotsBaromVisibWave heightAir tempDewpointWater temp
2017-Nov-19 01:16N 63°15' E 008°04'3 9.8
2017-Nov-19 01:00N 63°14' E 007°59'5 9.6
2017-Nov-19 00:31N 63°11' E 007°50'5 9.3
2017-Nov-19 00:01N 63°09' E 007°41'5 9.0
2017-Nov-18 23:30N 63°07' E 007°32'4 8.7
2017-Nov-18 23:00N 63°04' E 007°24'25 8.5
2017-Nov-18 20:01N 62°49' E 006°39'010.7
2017-Nov-18 20:01N 62°49' E 006°39'18 9.2
2017-Nov-18 18:05N 62°35' E 006°15'2 9.0
2017-Nov-18 17:52N 62°34' E 006°12'4 9.2
2017-Nov-18 17:28N 62°31' E 006°09'16 7.8
2017-Nov-18 15:23N 62°19' E 005°44'150 7.2
2017-Nov-17 18:35N 59°50' E 005°33'1 9.5
2017-Nov-17 18:30N 59°49' E 005°33'5 9.2
2017-Nov-17 18:00N 59°44' E 005°30'510.7
2017-Nov-17 17:30N 59°40' E 005°23'26 5.5
2017-Nov-17 12:46N 59°14' E 005°22'3 7.0
2017-Nov-17 12:20N 59°13' E 005°28'4 8.4
2017-Nov-17 11:52N 59°10' E 005°31'3 8.0
2017-Nov-17 11:30N 59°07' E 005°32'4 8.5
2017-Nov-17 11:00N 59°03' E 005°33'4 8.2
2017-Nov-17 10:29N 58°58' E 005°33'4 8.2
2017-Nov-17 10:00N 58°55' E 005°32'4 7.8
2017-Nov-17 09:30N 58°51' E 005°29'4 8.0
2017-Nov-17 09:01N 58°49' E 005°23'3 6.0
2017-Nov-17 08:31N 58°46' E 005°23'4 7.1
2017-Nov-17 08:00N 58°42' E 005°26'4 7.2
2017-Nov-17 07:29N 58°39' E 005°29'18 7.1
2017-Nov-17 04:53N 58°25' E 005°52'3 7.2
2017-Nov-17 04:30N 58°24' E 005°57'3 5.5
2017-Nov-17 04:01N 58°27' E 005°59'1 1.4
2017-Nov-17 03:31N 58°27' E 005°60'0 0.1
2017-Nov-17 03:01N 58°27' E 005°60'0 0.0
2017-Nov-17 02:31N 58°27' E 005°60'0 0.0
2017-Nov-17 02:01N 58°27' E 005°60'0 0.0
2017-Nov-17 01:31N 58°27' E 005°60'0 0.0
2017-Nov-17 01:01N 58°27' E 005°60'0 0.0
2017-Nov-17 00:31N 58°27' E 005°60'0 0.0
2017-Nov-17 00:01N 58°27' E 005°60'0 0.0
2017-Nov-16 23:31N 58°27' E 005°60'0 0.0
2017-Nov-16 23:01N 58°27' E 005°60'0 0.0
2017-Nov-16 22:31N 58°27' E 005°60'0 0.0
2017-Nov-16 22:01N 58°27' E 005°60'0 0.0
2017-Nov-16 21:31N 58°27' E 005°60'0 0.0
2017-Nov-16 21:00N 58°27' E 005°60'0 0.0
2017-Nov-16 20:30N 58°27' E 005°60'0 0.0
2017-Nov-16 20:01N 58°27' E 005°60'0 0.0
2017-Nov-16 19:31N 58°27' E 005°60'0 0.0
2017-Nov-16 19:00N 58°27' E 005°60'0 0.0
2017-Nov-16 18:31N 58°27' E 005°60'0 0.0
2017-Nov-16 18:01N 58°27' E 005°60'0 0.0
2017-Nov-16 17:31N 58°27' E 005°60'0 0.0
2017-Nov-16 17:00N 58°27' E 005°60'0 0.0
2017-Nov-16 16:31N 58°27' E 005°60'0 0.0
2017-Nov-16 16:01N 58°27' E 005°60'0 0.1
2017-Nov-16 15:31N 58°27' E 005°60'0 0.8
2017-Nov-16 15:00N 58°27' E 005°59'0 0.0
2017-Nov-16 14:31N 58°27' E 005°59'0 0.0
2017-Nov-16 14:01N 58°27' E 005°59'0 0.0
2017-Nov-16 13:30N 58°27' E 005°59'0 0.0
2017-Nov-16 13:01N 58°27' E 005°59'0 0.0
2017-Nov-16 12:31N 58°27' E 005°59'0 0.0
2017-Nov-16 12:01N 58°27' E 005°59'0 0.0
2017-Nov-16 11:31N 58°27' E 005°59'0 0.0
2017-Nov-16 11:00N 58°27' E 005°59'0 0.0
2017-Nov-16 10:31N 58°27' E 005°59'0 0.0
2017-Nov-16 10:01N 58°27' E 005°59'0 0.0
2017-Nov-16 09:31N 58°27' E 005°59'0 0.0
2017-Nov-16 09:01N 58°27' E 005°59'0 0.0
2017-Nov-16 08:30N 58°27' E 005°59'0 0.0
2017-Nov-16 08:01N 58°27' E 005°59'0 0.0
2017-Nov-16 07:31N 58°27' E 005°59'0 0.0
2017-Nov-16 07:01N 58°27' E 005°59'0 0.0
2017-Nov-16 06:30N 58°27' E 005°59'0 0.0
2017-Nov-16 06:01N 58°27' E 005°59'0 0.0
2017-Nov-16 05:31N 58°27' E 005°59'0 0.0
2017-Nov-16 05:01N 58°27' E 005°59'0 0.0
2017-Nov-16 04:30N 58°27' E 005°59'0 0.0
2017-Nov-16 04:00N 58°27' E 005°59'0 0.0
2017-Nov-16 03:31N 58°27' E 005°59'0 0.0
2017-Nov-16 03:01N 58°27' E 005°59'0 0.0
2017-Nov-16 02:31N 58°27' E 005°59'0 0.0
2017-Nov-16 02:01N 58°27' E 005°59'0 0.0
2017-Nov-16 01:31N 58°27' E 005°59'0 0.0
2017-Nov-16 01:01N 58°27' E 005°59'0 0.0
2017-Nov-16 00:30N 58°27' E 005°59'0 0.0
2017-Nov-16 00:01N 58°27' E 005°59'0 0.0
2017-Nov-15 23:31N 58°27' E 005°59'0 0.0
2017-Nov-15 23:01N 58°27' E 005°59'0 0.0
2017-Nov-15 22:31N 58°27' E 005°59'0 0.0
2017-Nov-15 22:01N 58°27' E 005°59'0 0.0
2017-Nov-15 21:31N 58°27' E 005°59'0 0.0
2017-Nov-15 21:01N 58°27' E 005°59'1 1.4
2017-Nov-15 20:31N 58°26' E 005°59'3 6.0
2017-Nov-15 20:00N 58°24' E 005°55'5 9.5
2017-Nov-15 19:30N 58°26' E 005°47'4 8.8
2017-Nov-15 19:00N 58°29' E 005°40'4 8.3
2017-Nov-15 18:31N 58°31' E 005°34'4 8.0
2017-Nov-15 18:01N 58°34' E 005°27'4 8.4
2017-Nov-15 17:30N 58°36' E 005°20'4 8.9
2017-Nov-15 17:00N 58°38' E 005°13'4 8.9
2017-Nov-15 16:30N 58°41' E 005°06'6 8.9
2017-Nov-15 15:51N 58°44' E 004°57'5 8.9
2017-Nov-15 15:20N 58°47' E 004°49'  
2017-Nov-13 02:00N 61°16' E 004°35'2 4.1
2017-Nov-13 01:31N 61°17' E 004°38'0 0.0
2017-Nov-13 01:00N 61°17' E 004°38'0 0.0
2017-Nov-13 00:31N 61°17' E 004°38'0 0.0
2017-Nov-13 00:00N 61°17' E 004°38'0 0.0
2017-Nov-12 23:30N 61°17' E 004°38'0 0.0
2017-Nov-12 23:00N 61°17' E 004°38'0 0.0
2017-Nov-12 22:30N 61°17' E 004°38'0 0.0
2017-Nov-12 22:00N 61°17' E 004°38'0 0.0
2017-Nov-12 21:30N 61°17' E 004°38'0 0.0
2017-Nov-12 21:00N 61°17' E 004°38'0 0.0
2017-Nov-12 20:30N 61°17' E 004°38'0 0.0
2017-Nov-12 20:00N 61°17' E 004°38'0 0.0
2017-Nov-12 19:30N 61°17' E 004°38'0 0.0
2017-Nov-12 19:00N 61°17' E 004°38'0 0.0
2017-Nov-12 18:30N 61°17' E 004°38'0 0.0
2017-Nov-12 18:00N 61°17' E 004°38'0 0.0
2017-Nov-12 17:30N 61°17' E 004°38'0 0.0
2017-Nov-12 17:00N 61°17' E 004°38'0 0.0
2017-Nov-12 16:30N 61°17' E 004°38'0 0.0
2017-Nov-12 16:00N 61°17' E 004°38'0 0.0
2017-Nov-12 15:31N 61°17' E 004°38'0 0.0
2017-Nov-12 15:00N 61°17' E 004°38'0 0.0
2017-Nov-12 14:30N 61°17' E 004°38'0 0.0
2017-Nov-12 13:59N 61°17' E 004°38'0 0.0
2017-Nov-12 13:31N 61°17' E 004°38'0 0.0
2017-Nov-12 13:00N 61°17' E 004°38'0 0.0
2017-Nov-12 12:30N 61°17' E 004°38'0 0.0
2017-Nov-12 12:00N 61°17' E 004°38'0 0.0
2017-Nov-12 11:29N 61°17' E 004°38'0 0.0
2017-Nov-12 11:00N 61°17' E 004°38'0 0.0
2017-Nov-12 10:30N 61°17' E 004°38'0 0.0
2017-Nov-12 10:00N 61°17' E 004°38'0 0.0
2017-Nov-12 09:30N 61°17' E 004°38'0 0.0
2017-Nov-12 09:00N 61°17' E 004°38'0 0.0
2017-Nov-12 08:30N 61°17' E 004°38'0 0.0
2017-Nov-12 08:00N 61°17' E 004°38'0 0.0
2017-Nov-12 07:30N 61°17' E 004°38'0 0.0
2017-Nov-12 06:59N 61°17' E 004°38'0 0.0
2017-Nov-12 06:30N 61°17' E 004°38'0 0.0
2017-Nov-12 06:00N 61°17' E 004°38'0 0.0
2017-Nov-12 05:30N 61°17' E 004°38'1 2.0
2017-Nov-12 05:00N 61°16' E 004°38'4 8.6
2017-Nov-12 04:30N 61°17' E 004°47'5 9.2
2017-Nov-12 04:00N 61°22' E 004°49'4 9.0
2017-Nov-12 03:30N 61°26' E 004°53'4 9.1
2017-Nov-12 03:00N 61°29' E 004°59'4 8.9
2017-Nov-12 02:30N 61°34' E 004°59'4 7.9
2017-Nov-12 02:00N 61°38' E 004°59'5 9.2
2017-Nov-12 01:30N 61°42' E 004°58'5 9.0
2017-Nov-12 01:00N 61°46' E 005°02'5 9.2
2017-Nov-12 00:30N 61°49' E 005°10'4 7.8
2017-Nov-12 00:00N 61°52' E 005°16'4 8.1
2017-Nov-11 23:30N 61°54' E 005°09'4 7.9
2017-Nov-11 23:00N 61°58' E 005°09'4 8.9
2017-Nov-11 22:31N 62°02' E 005°08'4 8.4
2017-Nov-11 21:59N 62°07' E 005°06'4 8.0
2017-Nov-11 21:30N 62°10' E 005°02'3 6.8
2017-Nov-11 21:00N 62°13' E 005°06'4 8.3
2017-Nov-11 20:30N 62°15' E 005°14'4 8.4
2017-Nov-11 20:00N 62°17' E 005°22'4 8.4
2017-Nov-11 19:30N 62°18' E 005°31'4 8.9
2017-Nov-11 19:01N 62°19' E 005°40'4 7.6
2017-Nov-11 18:30N 62°21' E 005°46'4 8.5
2017-Nov-11 18:00N 62°25' E 005°51'5 9.0
2017-Nov-11 17:30N 62°27' E 005°60'4 8.4
2017-Nov-11 17:00N 62°29' E 006°07'4 8.3
2017-Nov-11 16:31N 62°33' E 006°11'4 8.8
2017-Nov-11 16:00N 62°36' E 006°17'4 8.4
2017-Nov-11 15:30N 62°39' E 006°24'4 8.9
2017-Nov-11 15:00N 62°43' E 006°29'4 8.7
2017-Nov-11 14:30N 62°47' E 006°35'4 8.4
2017-Nov-11 14:00N 62°50' E 006°39'4 7.8
2017-Nov-11 13:31N 62°53' E 006°43'4 8.0
2017-Nov-11 13:00N 62°57' E 006°48'3 6.7
2017-Nov-11 12:30N 62°59' E 006°54'3 6.8
2017-Nov-11 12:00N 62°60' E 007°01'4 7.5
2017-Nov-11 11:30N 63°01' E 007°09'4 7.8
2017-Nov-11 11:01N 63°02' E 007°17'4 8.0
2017-Nov-11 10:30N 63°04' E 007°24'4 7.9
2017-Nov-11 10:01N 63°06' E 007°32'4 7.4
2017-Nov-11 09:31N 63°07' E 007°40'2 3.8
2017-Nov-11 09:01N 63°07' E 007°44'0 0.0
2017-Nov-11 08:31N 63°07' E 007°44'0 0.0
2017-Nov-11 08:01N 63°07' E 007°44'0 0.0
2017-Nov-11 07:31N 63°07' E 007°44'0 0.0
2017-Nov-11 07:00N 63°07' E 007°44'0 0.0
2017-Nov-11 06:31N 63°07' E 007°44'0 0.0
2017-Nov-11 06:01N 63°07' E 007°44'0 0.0
2017-Nov-11 05:31N 63°07' E 007°44'0 0.0
2017-Nov-11 05:01N 63°07' E 007°44'0 0.0
2017-Nov-11 04:31N 63°07' E 007°44'0 0.0
2017-Nov-11 04:01N 63°07' E 007°44'0 0.0
2017-Nov-11 03:31N 63°07' E 007°44'0 0.0
2017-Nov-11 03:00N 63°07' E 007°44'0 0.0
2017-Nov-11 02:31N 63°07' E 007°44'0 0.0
2017-Nov-11 02:00N 63°07' E 007°44'0 0.0
2017-Nov-11 01:31N 63°07' E 007°44'0 0.0
2017-Nov-11 01:01N 63°07' E 007°44'0 0.0
2017-Nov-11 00:31N 63°07' E 007°44'0 0.0
2017-Nov-11 00:01N 63°07' E 007°44'0 0.0
2017-Nov-10 23:31N 63°07' E 007°44'0 0.0
2017-Nov-10 23:01N 63°07' E 007°44'0 0.0
2017-Nov-10 22:31N 63°07' E 007°44'0 0.0
2017-Nov-10 22:01N 63°07' E 007°44'0 0.0
2017-Nov-10 21:31N 63°07' E 007°44'0 0.0
2017-Nov-10 21:00N 63°07' E 007°44'0 0.0
2017-Nov-10 20:31N 63°07' E 007°44'0 0.0
2017-Nov-10 20:01N 63°07' E 007°44'0 0.0
2017-Nov-10 19:30N 63°07' E 007°44'0 0.0
2017-Nov-10 19:01N 63°07' E 007°44'0 0.0
2017-Nov-10 18:31N 63°07' E 007°44'0 0.0
2017-Nov-10 18:00N 63°07' E 007°44'0 0.0
2017-Nov-10 17:30N 63°07' E 007°44'0 0.0
2017-Nov-10 17:00N 63°07' E 007°44'0 0.0
2017-Nov-10 16:31N 63°07' E 007°44'0 0.0
2017-Nov-10 16:00N 63°07' E 007°44'0 0.0
2017-Nov-10 15:30N 63°07' E 007°44'0 0.0
2017-Nov-10 15:01N 63°07' E 007°44'0 0.0
2017-Nov-10 14:31N 63°07' E 007°44'0 0.0
2017-Nov-10 14:00N 63°07' E 007°44'0 0.0
2017-Nov-10 13:31N 63°07' E 007°44'0 0.0
2017-Nov-10 13:00N 63°07' E 007°44'0 0.0
2017-Nov-10 12:30N 63°07' E 007°44'0 0.0
2017-Nov-10 12:01N 63°07' E 007°44'0 0.0
2017-Nov-10 11:31N 63°07' E 007°44'0 0.0
2017-Nov-10 11:01N 63°07' E 007°44'0 0.0
2017-Nov-10 10:31N 63°07' E 007°44'0 0.0
2017-Nov-10 10:01N 63°07' E 007°44'0 0.0
2017-Nov-10 09:31N 63°07' E 007°44'0 0.0
2017-Nov-10 09:01N 63°07' E 007°44'0 0.0
2017-Nov-10 08:31N 63°07' E 007°44'0 0.0
2017-Nov-10 08:01N 63°07' E 007°44'0 0.0
2017-Nov-10 07:31N 63°07' E 007°44'0 0.0
2017-Nov-10 07:00N 63°07' E 007°44'0 0.0
2017-Nov-10 06:31N 63°07' E 007°44'0 0.0
2017-Nov-10 06:01N 63°07' E 007°44'0 0.0
2017-Nov-10 05:30N 63°07' E 007°44'0 0.0
2017-Nov-10 05:01N 63°07' E 007°44'0 0.0
2017-Nov-10 04:31N 63°07' E 007°44'0 0.0
2017-Nov-10 04:01N 63°07' E 007°44'0 0.0
2017-Nov-10 03:30N 63°07' E 007°44'0 0.0
2017-Nov-10 03:01N 63°07' E 007°44'0 0.0
2017-Nov-10 02:30N 63°07' E 007°44'3 5.9
2017-Nov-10 02:00N 63°09' E 007°48'4 7.2
2017-Nov-10 01:30N 63°12' E 007°52'4 7.2
2017-Nov-10 01:01N 63°14' E 007°59'4 7.8
2017-Nov-10 00:31N 63°16' E 008°06'4 7.4
2017-Nov-10 00:00N 63°18' E 008°13'4 7.1
2017-Nov-09 23:30N 63°20' E 008°19'4 7.6
2017-Nov-09 23:00N 63°22' E 008°26'4 7.8
2017-Nov-09 22:30N 63°24' E 008°34'4 7.9
2017-Nov-09 22:00N 63°26' E 008°42'4 7.9
2017-Nov-09 21:31N 63°27' E 008°50'4 7.8
2017-Nov-09 21:00N 63°29' E 008°58'4 7.8
2017-Nov-09 20:30N 63°30' E 009°06'4 7.5
2017-Nov-09 20:00N 63°32' E 009°13'4 8.3
2017-Nov-09 19:30N 63°34' E 009°22'4 8.4
2017-Nov-09 19:00N 63°37' E 009°28'4 8.3
2017-Nov-09 18:31N 63°41' E 009°30'4 8.5
2017-Nov-09 18:00N 63°46' E 009°32'4 8.7
2017-Nov-09 17:30N 63°49' E 009°37'4 8.3
2017-Nov-09 17:00N 63°53' E 009°43'4 8.0
2017-Nov-09 16:31N 63°56' E 009°48'4 8.5
2017-Nov-09 16:00N 63°59' E 009°55'4 8.8
2017-Nov-09 15:30N 64°02' E 010°01'2 4.5
2017-Nov-09 15:01N 64°05' E 010°01'4 7.9
2017-Nov-09 14:29N 64°08' E 010°05'4 8.5
2017-Nov-09 14:00N 64°12' E 010°10'4 8.5
2017-Nov-09 13:29N 64°15' E 010°17'4 8.0
2017-Nov-09 13:00N 64°18' E 010°20'4 8.1
2017-Nov-09 12:31N 64°22' E 010°23'4 7.8
2017-Nov-09 12:01N 64°26' E 010°27'4 6.9
2017-Nov-09 11:30N 64°29' E 010°31'4 7.5
2017-Nov-09 11:00N 64°32' E 010°36'3 6.7
2017-Nov-09 10:30N 64°35' E 010°41'3 6.1
2017-Nov-09 10:00N 64°37' E 010°45'3 6.0
2017-Nov-09 09:29N 64°40' E 010°48'3 6.0
2017-Nov-09 09:01N 64°42' E 010°53'4 7.4
2017-Nov-09 08:30N 64°45' E 010°59'4 8.3
2017-Nov-09 08:00N 64°48' E 011°06'4 8.8
2017-Nov-09 07:31N 64°51' E 011°13'4 8.4
2017-Nov-09 07:01N 64°54' E 011°20'5 9.1
2017-Nov-09 06:31N 64°57' E 011°28'4 8.9
2017-Nov-09 06:00N 64°60' E 011°36'5 9.0
2017-Nov-09 05:30N 65°03' E 011°43'4 8.6
2017-Nov-09 05:00N 65°07' E 011°48'4 8.8
2017-Nov-09 04:30N 65°11' E 011°51'4 8.5
2017-Nov-09 04:00N 65°15' E 011°55'4 8.4
2017-Nov-09 03:31N 65°18' E 011°60'4 8.7
2017-Nov-09 03:00N 65°22' E 012°05'4 8.9
2017-Nov-09 02:30N 65°26' E 012°09'3 6.3
2017-Nov-09 02:00N 65°29' E 012°12'4 7.2
2017-Nov-09 01:30N 65°33' E 012°13'  
Track history (hours):
 
Tides and Currents Weather Stations Pressure Air Temp Water Temp Dewpoint Dewpoint Depression Visibility Wind Speed Wind Dir Waves Ship Positions

0ksnesvaering

Last reported at 2017-Nov-19 01:16 UTC. Time now 2017-Nov-19 12:33 UTC.
Position N 63°15' E 008°04'.

Length 28 m; draft 5.3 m.

Type: Fishing. MMSI: 257580600.

Date/timePositionNaut miles runAvg speedWind from/ knotsBaromVisibWave heightAir tempDewpointWater temp
2017-Nov-19 01:16N 63°15' E 008°04'3 9.8
2017-Nov-19 01:00N 63°14' E 007°59'5 9.6
2017-Nov-19 00:31N 63°11' E 007°50'5 9.3
2017-Nov-19 00:01N 63°09' E 007°41'5 9.0
2017-Nov-18 23:30N 63°07' E 007°32'4 8.7
2017-Nov-18 23:00N 63°04' E 007°24'25 8.5
2017-Nov-18 20:01N 62°49' E 006°39'010.7
2017-Nov-18 20:01N 62°49' E 006°39'18 9.2
2017-Nov-18 18:05N 62°35' E 006°15'2 9.0
2017-Nov-18 17:52N 62°34' E 006°12'4 9.2
2017-Nov-18 17:28N 62°31' E 006°09'16 7.8
2017-Nov-18 15:23N 62°19' E 005°44'150 7.2
2017-Nov-17 18:35N 59°50' E 005°33'1 9.5
2017-Nov-17 18:30N 59°49' E 005°33'5 9.2
2017-Nov-17 18:00N 59°44' E 005°30'510.7
2017-Nov-17 17:30N 59°40' E 005°23'26 5.5
2017-Nov-17 12:46N 59°14' E 005°22'3 7.0
2017-Nov-17 12:20N 59°13' E 005°28'4 8.4
2017-Nov-17 11:52N 59°10' E 005°31'3 8.0
2017-Nov-17 11:30N 59°07' E 005°32'4 8.5
2017-Nov-17 11:00N 59°03' E 005°33'4 8.2
2017-Nov-17 10:29N 58°58' E 005°33'4 8.2
2017-Nov-17 10:00N 58°55' E 005°32'4 7.8
2017-Nov-17 09:30N 58°51' E 005°29'4 8.0
2017-Nov-17 09:01N 58°49' E 005°23'3 6.0
2017-Nov-17 08:31N 58°46' E 005°23'4 7.1
2017-Nov-17 08:00N 58°42' E 005°26'4 7.2
2017-Nov-17 07:29N 58°39' E 005°29'18 7.1
2017-Nov-17 04:53N 58°25' E 005°52'3 7.2
2017-Nov-17 04:30N 58°24' E 005°57'3 5.5
2017-Nov-17 04:01N 58°27' E 005°59'1 1.4
2017-Nov-17 03:31N 58°27' E 005°60'0 0.1
2017-Nov-17 03:01N 58°27' E 005°60'0 0.0
2017-Nov-17 02:31N 58°27' E 005°60'0 0.0
2017-Nov-17 02:01N 58°27' E 005°60'0 0.0
2017-Nov-17 01:31N 58°27' E 005°60'0 0.0
2017-Nov-17 01:01N 58°27' E 005°60'0 0.0
2017-Nov-17 00:31N 58°27' E 005°60'0 0.0
2017-Nov-17 00:01N 58°27' E 005°60'0 0.0
2017-Nov-16 23:31N 58°27' E 005°60'0 0.0
2017-Nov-16 23:01N 58°27' E 005°60'0 0.0
2017-Nov-16 22:31N 58°27' E 005°60'0 0.0
2017-Nov-16 22:01N 58°27' E 005°60'0 0.0
2017-Nov-16 21:31N 58°27' E 005°60'0 0.0
2017-Nov-16 21:00N 58°27' E 005°60'0 0.0
2017-Nov-16 20:30N 58°27' E 005°60'0 0.0
2017-Nov-16 20:01N 58°27' E 005°60'0 0.0
2017-Nov-16 19:31N 58°27' E 005°60'0 0.0
2017-Nov-16 19:00N 58°27' E 005°60'0 0.0
2017-Nov-16 18:31N 58°27' E 005°60'0 0.0
2017-Nov-16 18:01N 58°27' E 005°60'0 0.0
2017-Nov-16 17:31N 58°27' E 005°60'0 0.0
2017-Nov-16 17:00N 58°27' E 005°60'0 0.0
2017-Nov-16 16:31N 58°27' E 005°60'0 0.0
2017-Nov-16 16:01N 58°27' E 005°60'0 0.1
2017-Nov-16 15:31N 58°27' E 005°60'0 0.8
2017-Nov-16 15:00N 58°27' E 005°59'0 0.0
2017-Nov-16 14:31N 58°27' E 005°59'0 0.0
2017-Nov-16 14:01N 58°27' E 005°59'0 0.0
2017-Nov-16 13:30N 58°27' E 005°59'0 0.0
2017-Nov-16 13:01N 58°27' E 005°59'0 0.0
2017-Nov-16 12:31N 58°27' E 005°59'0 0.0
2017-Nov-16 12:01N 58°27' E 005°59'0 0.0
2017-Nov-16 11:31N 58°27' E 005°59'0 0.0
2017-Nov-16 11:00N 58°27' E 005°59'0 0.0
2017-Nov-16 10:31N 58°27' E 005°59'0 0.0
2017-Nov-16 10:01N 58°27' E 005°59'0 0.0
2017-Nov-16 09:31N 58°27' E 005°59'0 0.0
2017-Nov-16 09:01N 58°27' E 005°59'0 0.0
2017-Nov-16 08:30N 58°27' E 005°59'0 0.0
2017-Nov-16 08:01N 58°27' E 005°59'0 0.0
2017-Nov-16 07:31N 58°27' E 005°59'0 0.0
2017-Nov-16 07:01N 58°27' E 005°59'0 0.0
2017-Nov-16 06:30N 58°27' E 005°59'0 0.0
2017-Nov-16 06:01N 58°27' E 005°59'0 0.0
2017-Nov-16 05:31N 58°27' E 005°59'0 0.0
2017-Nov-16 05:01N 58°27' E 005°59'0 0.0
2017-Nov-16 04:30N 58°27' E 005°59'0 0.0
2017-Nov-16 04:00N 58°27' E 005°59'0 0.0
2017-Nov-16 03:31N 58°27' E 005°59'0 0.0
2017-Nov-16 03:01N 58°27' E 005°59'0 0.0
2017-Nov-16 02:31N 58°27' E 005°59'0 0.0
2017-Nov-16 02:01N 58°27' E 005°59'0 0.0
2017-Nov-16 01:31N 58°27' E 005°59'0 0.0
2017-Nov-16 01:01N 58°27' E 005°59'0 0.0
2017-Nov-16 00:30N 58°27' E 005°59'0 0.0
2017-Nov-16 00:01N 58°27' E 005°59'0 0.0
2017-Nov-15 23:31N 58°27' E 005°59'0 0.0
2017-Nov-15 23:01N 58°27' E 005°59'0 0.0
2017-Nov-15 22:31N 58°27' E 005°59'0 0.0
2017-Nov-15 22:01N 58°27' E 005°59'0 0.0
2017-Nov-15 21:31N 58°27' E 005°59'0 0.0
2017-Nov-15 21:01N 58°27' E 005°59'1 1.4
2017-Nov-15 20:31N 58°26' E 005°59'3 6.0
2017-Nov-15 20:00N 58°24' E 005°55'5 9.5
2017-Nov-15 19:30N 58°26' E 005°47'4 8.8
2017-Nov-15 19:00N 58°29' E 005°40'4 8.3
2017-Nov-15 18:31N 58°31' E 005°34'4 8.0
2017-Nov-15 18:01N 58°34' E 005°27'4 8.4
2017-Nov-15 17:30N 58°36' E 005°20'4 8.9
2017-Nov-15 17:00N 58°38' E 005°13'4 8.9
2017-Nov-15 16:30N 58°41' E 005°06'6 8.9
2017-Nov-15 15:51N 58°44' E 004°57'5 8.9
2017-Nov-15 15:20N 58°47' E 004°49'  
2017-Nov-13 02:00N 61°16' E 004°35'2 4.1
2017-Nov-13 01:31N 61°17' E 004°38'0 0.0
2017-Nov-13 01:00N 61°17' E 004°38'0 0.0
2017-Nov-13 00:31N 61°17' E 004°38'0 0.0
2017-Nov-13 00:00N 61°17' E 004°38'0 0.0
2017-Nov-12 23:30N 61°17' E 004°38'0 0.0
2017-Nov-12 23:00N 61°17' E 004°38'0 0.0
2017-Nov-12 22:30N 61°17' E 004°38'0 0.0
2017-Nov-12 22:00N 61°17' E 004°38'0 0.0
2017-Nov-12 21:30N 61°17' E 004°38'0 0.0
2017-Nov-12 21:00N 61°17' E 004°38'0 0.0
2017-Nov-12 20:30N 61°17' E 004°38'0 0.0
2017-Nov-12 20:00N 61°17' E 004°38'0 0.0
2017-Nov-12 19:30N 61°17' E 004°38'0 0.0
2017-Nov-12 19:00N 61°17' E 004°38'0 0.0
2017-Nov-12 18:30N 61°17' E 004°38'0 0.0
2017-Nov-12 18:00N 61°17' E 004°38'0 0.0
2017-Nov-12 17:30N 61°17' E 004°38'0 0.0
2017-Nov-12 17:00N 61°17' E 004°38'0 0.0
2017-Nov-12 16:30N 61°17' E 004°38'0 0.0
2017-Nov-12 16:00N 61°17' E 004°38'0 0.0
2017-Nov-12 15:31N 61°17' E 004°38'0 0.0
2017-Nov-12 15:00N 61°17' E 004°38'0 0.0
2017-Nov-12 14:30N 61°17' E 004°38'0 0.0
2017-Nov-12 13:59N 61°17' E 004°38'0 0.0
2017-Nov-12 13:31N 61°17' E 004°38'0 0.0
2017-Nov-12 13:00N 61°17' E 004°38'0 0.0
2017-Nov-12 12:30N 61°17' E 004°38'0 0.0
2017-Nov-12 12:00N 61°17' E 004°38'0 0.0
2017-Nov-12 11:29N 61°17' E 004°38'0 0.0
2017-Nov-12 11:00N 61°17' E 004°38'0 0.0
2017-Nov-12 10:30N 61°17' E 004°38'0 0.0
2017-Nov-12 10:00N 61°17' E 004°38'0 0.0
2017-Nov-12 09:30N 61°17' E 004°38'0 0.0
2017-Nov-12 09:00N 61°17' E 004°38'0 0.0
2017-Nov-12 08:30N 61°17' E 004°38'0 0.0
2017-Nov-12 08:00N 61°17' E 004°38'0 0.0
2017-Nov-12 07:30N 61°17' E 004°38'0 0.0
2017-Nov-12 06:59N 61°17' E 004°38'0 0.0
2017-Nov-12 06:30N 61°17' E 004°38'0 0.0
2017-Nov-12 06:00N 61°17' E 004°38'0 0.0
2017-Nov-12 05:30N 61°17' E 004°38'1 2.0
2017-Nov-12 05:00N 61°16' E 004°38'4 8.6
2017-Nov-12 04:30N 61°17' E 004°47'5 9.2
2017-Nov-12 04:00N 61°22' E 004°49'4 9.0
2017-Nov-12 03:30N 61°26' E 004°53'4 9.1
2017-Nov-12 03:00N 61°29' E 004°59'4 8.9
2017-Nov-12 02:30N 61°34' E 004°59'4 7.9
2017-Nov-12 02:00N 61°38' E 004°59'5 9.2
2017-Nov-12 01:30N 61°42' E 004°58'5 9.0
2017-Nov-12 01:00N 61°46' E 005°02'5 9.2
2017-Nov-12 00:30N 61°49' E 005°10'4 7.8
2017-Nov-12 00:00N 61°52' E 005°16'4 8.1
2017-Nov-11 23:30N 61°54' E 005°09'4 7.9
2017-Nov-11 23:00N 61°58' E 005°09'4 8.9
2017-Nov-11 22:31N 62°02' E 005°08'4 8.4
2017-Nov-11 21:59N 62°07' E 005°06'4 8.0
2017-Nov-11 21:30N 62°10' E 005°02'3 6.8
2017-Nov-11 21:00N 62°13' E 005°06'4 8.3
2017-Nov-11 20:30N 62°15' E 005°14'4 8.4
2017-Nov-11 20:00N 62°17' E 005°22'4 8.4
2017-Nov-11 19:30N 62°18' E 005°31'4 8.9
2017-Nov-11 19:01N 62°19' E 005°40'4 7.6
2017-Nov-11 18:30N 62°21' E 005°46'4 8.5
2017-Nov-11 18:00N 62°25' E 005°51'5 9.0
2017-Nov-11 17:30N 62°27' E 005°60'4 8.4
2017-Nov-11 17:00N 62°29' E 006°07'4 8.3
2017-Nov-11 16:31N 62°33' E 006°11'4 8.8
2017-Nov-11 16:00N 62°36' E 006°17'4 8.4
2017-Nov-11 15:30N 62°39' E 006°24'4 8.9
2017-Nov-11 15:00N 62°43' E 006°29'4 8.7
2017-Nov-11 14:30N 62°47' E 006°35'4 8.4
2017-Nov-11 14:00N 62°50' E 006°39'4 7.8
2017-Nov-11 13:31N 62°53' E 006°43'4 8.0
2017-Nov-11 13:00N 62°57' E 006°48'3 6.7
2017-Nov-11 12:30N 62°59' E 006°54'3 6.8
2017-Nov-11 12:00N 62°60' E 007°01'4 7.5
2017-Nov-11 11:30N 63°01' E 007°09'4 7.8
2017-Nov-11 11:01N 63°02' E 007°17'4 8.0
2017-Nov-11 10:30N 63°04' E 007°24'4 7.9
2017-Nov-11 10:01N 63°06' E 007°32'4 7.4
2017-Nov-11 09:31N 63°07' E 007°40'2 3.8
2017-Nov-11 09:01N 63°07' E 007°44'0 0.0
2017-Nov-11 08:31N 63°07' E 007°44'0 0.0
2017-Nov-11 08:01N 63°07' E 007°44'0 0.0
2017-Nov-11 07:31N 63°07' E 007°44'0 0.0
2017-Nov-11 07:00N 63°07' E 007°44'0 0.0
2017-Nov-11 06:31N 63°07' E 007°44'0 0.0
2017-Nov-11 06:01N 63°07' E 007°44'0 0.0
2017-Nov-11 05:31N 63°07' E 007°44'0 0.0
2017-Nov-11 05:01N 63°07' E 007°44'0 0.0
2017-Nov-11 04:31N 63°07' E 007°44'0 0.0
2017-Nov-11 04:01N 63°07' E 007°44'0 0.0
2017-Nov-11 03:31N 63°07' E 007°44'0 0.0
2017-Nov-11 03:00N 63°07' E 007°44'0 0.0
2017-Nov-11 02:31N 63°07' E 007°44'0 0.0
2017-Nov-11 02:00N 63°07' E 007°44'0 0.0
2017-Nov-11 01:31N 63°07' E 007°44'0 0.0
2017-Nov-11 01:01N 63°07' E 007°44'0 0.0
2017-Nov-11 00:31N 63°07' E 007°44'0 0.0
2017-Nov-11 00:01N 63°07' E 007°44'0 0.0
2017-Nov-10 23:31N 63°07' E 007°44'0 0.0
2017-Nov-10 23:01N 63°07' E 007°44'0 0.0
2017-Nov-10 22:31N 63°07' E 007°44'0 0.0
2017-Nov-10 22:01N 63°07' E 007°44'0 0.0
2017-Nov-10 21:31N 63°07' E 007°44'0 0.0
2017-Nov-10 21:00N 63°07' E 007°44'0 0.0
2017-Nov-10 20:31N 63°07' E 007°44'0 0.0
2017-Nov-10 20:01N 63°07' E 007°44'0 0.0
2017-Nov-10 19:30N 63°07' E 007°44'0 0.0
2017-Nov-10 19:01N 63°07' E 007°44'0 0.0
2017-Nov-10 18:31N 63°07' E 007°44'0 0.0
2017-Nov-10 18:00N 63°07' E 007°44'0 0.0
2017-Nov-10 17:30N 63°07' E 007°44'0 0.0
2017-Nov-10 17:00N 63°07' E 007°44'0 0.0
2017-Nov-10 16:31N 63°07' E 007°44'0 0.0
2017-Nov-10 16:00N 63°07' E 007°44'0 0.0
2017-Nov-10 15:30N 63°07' E 007°44'0 0.0
2017-Nov-10 15:01N 63°07' E 007°44'0 0.0
2017-Nov-10 14:31N 63°07' E 007°44'0 0.0
2017-Nov-10 14:00N 63°07' E 007°44'0 0.0
2017-Nov-10 13:31N 63°07' E 007°44'0 0.0
2017-Nov-10 13:00N 63°07' E 007°44'0 0.0
2017-Nov-10 12:30N 63°07' E 007°44'0 0.0
2017-Nov-10 12:01N 63°07' E 007°44'0 0.0
2017-Nov-10 11:31N 63°07' E 007°44'0 0.0
2017-Nov-10 11:01N 63°07' E 007°44'0 0.0
2017-Nov-10 10:31N 63°07' E 007°44'0 0.0
2017-Nov-10 10:01N 63°07' E 007°44'0 0.0
2017-Nov-10 09:31N 63°07' E 007°44'0 0.0
2017-Nov-10 09:01N 63°07' E 007°44'0 0.0
2017-Nov-10 08:31N 63°07' E 007°44'0 0.0
2017-Nov-10 08:01N 63°07' E 007°44'0 0.0
2017-Nov-10 07:31N 63°07' E 007°44'0 0.0
2017-Nov-10 07:00N 63°07' E 007°44'0 0.0
2017-Nov-10 06:31N 63°07' E 007°44'0 0.0
2017-Nov-10 06:01N 63°07' E 007°44'0 0.0
2017-Nov-10 05:30N 63°07' E 007°44'0 0.0
2017-Nov-10 05:01N 63°07' E 007°44'0 0.0
2017-Nov-10 04:31N 63°07' E 007°44'0 0.0
2017-Nov-10 04:01N 63°07' E 007°44'0 0.0
2017-Nov-10 03:30N 63°07' E 007°44'0 0.0
2017-Nov-10 03:01N 63°07' E 007°44'0 0.0
2017-Nov-10 02:30N 63°07' E 007°44'3 5.9
2017-Nov-10 02:00N 63°09' E 007°48'4 7.2
2017-Nov-10 01:30N 63°12' E 007°52'4 7.2
2017-Nov-10 01:01N 63°14' E 007°59'4 7.8
2017-Nov-10 00:31N 63°16' E 008°06'4 7.4
2017-Nov-10 00:00N 63°18' E 008°13'4 7.1
2017-Nov-09 23:30N 63°20' E 008°19'4 7.6
2017-Nov-09 23:00N 63°22' E 008°26'4 7.8
2017-Nov-09 22:30N 63°24' E 008°34'4 7.9
2017-Nov-09 22:00N 63°26' E 008°42'4 7.9
2017-Nov-09 21:31N 63°27' E 008°50'4 7.8
2017-Nov-09 21:00N 63°29' E 008°58'4 7.8
2017-Nov-09 20:30N 63°30' E 009°06'4 7.5
2017-Nov-09 20:00N 63°32' E 009°13'4 8.3
2017-Nov-09 19:30N 63°34' E 009°22'4 8.4
2017-Nov-09 19:00N 63°37' E 009°28'4 8.3
2017-Nov-09 18:31N 63°41' E 009°30'4 8.5
2017-Nov-09 18:00N 63°46' E 009°32'4 8.7
2017-Nov-09 17:30N 63°49' E 009°37'4 8.3
2017-Nov-09 17:00N 63°53' E 009°43'4 8.0
2017-Nov-09 16:31N 63°56' E 009°48'4 8.5
2017-Nov-09 16:00N 63°59' E 009°55'4 8.8
2017-Nov-09 15:30N 64°02' E 010°01'2 4.5
2017-Nov-09 15:01N 64°05' E 010°01'4 7.9
2017-Nov-09 14:29N 64°08' E 010°05'4 8.5
2017-Nov-09 14:00N 64°12' E 010°10'4 8.5
2017-Nov-09 13:29N 64°15' E 010°17'4 8.0
2017-Nov-09 13:00N 64°18' E 010°20'4 8.1
2017-Nov-09 12:31N 64°22' E 010°23'4 7.8
2017-Nov-09 12:01N 64°26' E 010°27'4 6.9
2017-Nov-09 11:30N 64°29' E 010°31'4 7.5
2017-Nov-09 11:00N 64°32' E 010°36'3 6.7
2017-Nov-09 10:30N 64°35' E 010°41'3 6.1
2017-Nov-09 10:00N 64°37' E 010°45'3 6.0
2017-Nov-09 09:29N 64°40' E 010°48'3 6.0
2017-Nov-09 09:01N 64°42' E 010°53'4 7.4
2017-Nov-09 08:30N 64°45' E 010°59'4 8.3
2017-Nov-09 08:00N 64°48' E 011°06'4 8.8
2017-Nov-09 07:31N 64°51' E 011°13'4 8.4
2017-Nov-09 07:01N 64°54' E 011°20'5 9.1
2017-Nov-09 06:31N 64°57' E 011°28'4 8.9
2017-Nov-09 06:00N 64°60' E 011°36'5 9.0
2017-Nov-09 05:30N 65°03' E 011°43'4 8.6
2017-Nov-09 05:00N 65°07' E 011°48'4 8.8
2017-Nov-09 04:30N 65°11' E 011°51'4 8.5
2017-Nov-09 04:00N 65°15' E 011°55'4 8.4
2017-Nov-09 03:31N 65°18' E 011°60'4 8.7
2017-Nov-09 03:00N 65°22' E 012°05'4 8.9
2017-Nov-09 02:30N 65°26' E 012°09'3 6.3
2017-Nov-09 02:00N 65°29' E 012°12'4 7.2
2017-Nov-09 01:30N 65°33' E 012°13'  

Dump ship's entire track history